sensor_id;sensor_type;location;lat;lon;timestamp;pressure;altitude;pressure_sealevel;temperature;humidity
51178;BME280;37243;49.814;8.652;2022-09-09T00:00:17;99759.25;;;28.08;42.31
51178;BME280;37243;49.814;8.652;2022-09-09T00:02:51;99751.78;;;28.09;41.69
51178;BME280;37243;49.814;8.652;2022-09-09T00:05:31;99754.09;;;28.07;42.65
51178;BME280;37243;49.814;8.652;2022-09-09T00:08:03;99753.28;;;28.06;42.06
51178;BME280;37243;49.814;8.652;2022-09-09T00:10:40;99756.16;;;28.10;42.15
51178;BME280;37243;49.814;8.652;2022-09-09T00:13:16;99748.75;;;28.14;42.49
51178;BME280;37243;49.814;8.652;2022-09-09T00:15:55;99745.75;;;28.19;42.16
51178;BME280;37243;49.814;8.652;2022-09-09T00:18:29;99747.25;;;28.17;41.88
51178;BME280;37243;49.814;8.652;2022-09-09T00:21:06;99741.38;;;28.18;42.19
51178;BME280;37243;49.814;8.652;2022-09-09T00:23:38;99739.44;;;28.19;42.08
51178;BME280;37243;49.814;8.652;2022-09-09T00:26:12;99737.47;;;28.19;41.90
51178;BME280;37243;49.814;8.652;2022-09-09T00:28:48;99732.41;;;28.21;42.26
51178;BME280;37243;49.814;8.652;2022-09-09T00:31:23;99745.03;;;28.22;42.00
51178;BME280;37243;49.814;8.652;2022-09-09T00:33:53;99740.75;;;28.25;42.33
51178;BME280;37243;49.814;8.652;2022-09-09T00:36:27;99746.63;;;28.23;42.13
51178;BME280;37243;49.814;8.652;2022-09-09T00:39:01;99743.44;;;28.21;41.90
51178;BME280;37243;49.814;8.652;2022-09-09T00:41:45;99738.72;;;28.22;41.81
51178;BME280;37243;49.814;8.652;2022-09-09T00:44:27;99748.94;;;28.21;41.98
51178;BME280;37243;49.814;8.652;2022-09-09T00:47:09;99747.31;;;28.20;42.14
51178;BME280;37243;49.814;8.652;2022-09-09T00:49:51;99748.94;;;28.21;41.56
51178;BME280;37243;49.814;8.652;2022-09-09T00:52:34;99744.13;;;28.18;41.87
51178;BME280;37243;49.814;8.652;2022-09-09T00:55:14;99748.03;;;28.17;41.66
51178;BME280;37243;49.814;8.652;2022-09-09T00:57:45;99754.72;;;28.16;42.11
51178;BME280;37243;49.814;8.652;2022-09-09T01:00:20;99750.03;;;28.17;42.41
51178;BME280;37243;49.814;8.652;2022-09-09T01:02:56;99746.44;;;28.16;42.40
51178;BME280;37243;49.814;8.652;2022-09-09T01:05:35;99747.25;;;28.17;42.03
51178;BME280;37243;49.814;8.652;2022-09-09T01:08:17;99739.31;;;28.15;42.11
51178;BME280;37243;49.814;8.652;2022-09-09T01:10:54;99739.75;;;28.17;41.89
51178;BME280;37243;49.814;8.652;2022-09-09T01:13:25;99741.38;;;28.18;42.12
51178;BME280;37243;49.814;8.652;2022-09-09T01:16:00;99746.09;;;28.17;42.04
51178;BME280;37243;49.814;8.652;2022-09-09T01:18:34;99743.69;;;28.16;41.86
51178;BME280;37243;49.814;8.652;2022-09-09T01:21:13;99742.09;;;28.15;42.19
51178;BME280;37243;49.814;8.652;2022-09-09T01:24:08;99733.00;;;28.14;42.36
51178;BME280;37243;49.814;8.652;2022-09-09T01:26:45;99734.97;;;28.14;41.73
51178;BME280;37243;49.814;8.652;2022-09-09T01:29:16;99737.72;;;28.14;42.02
51178;BME280;37243;49.814;8.652;2022-09-09T01:31:52;99736.22;;;28.17;42.29
51178;BME280;37243;49.814;8.652;2022-09-09T01:34:24;99735.44;;;28.16;42.40
51178;BME280;37243;49.814;8.652;2022-09-09T01:36:57;99731.50;;;28.17;42.35
51178;BME280;37243;49.814;8.652;2022-09-09T01:39:28;99726.69;;;28.14;42.02
51178;BME280;37243;49.814;8.652;2022-09-09T01:42:00;99732.19;;;28.14;42.00
51178;BME280;37243;49.814;8.652;2022-09-09T01:44:30;99731.31;;;28.10;41.77
51178;BME280;37243;49.814;8.652;2022-09-09T01:47:00;99730.16;;;28.11;42.01
51178;BME280;37243;49.814;8.652;2022-09-09T01:49:29;99730.16;;;28.11;42.33
51178;BME280;37243;49.814;8.652;2022-09-09T01:51:58;99732.66;;;28.16;42.42
51178;BME280;37243;49.814;8.652;2022-09-09T01:54:30;99732.75;;;28.20;41.60
51178;BME280;37243;49.814;8.652;2022-09-09T01:57:12;99733.47;;;28.17;42.34
51178;BME280;37243;49.814;8.652;2022-09-09T01:59:54;99739.44;;;28.19;41.84
51178;BME280;37243;49.814;8.652;2022-09-09T02:02:32;99734.72;;;28.19;42.04
51178;BME280;37243;49.814;8.652;2022-09-09T02:05:17;99730.78;;;28.20;42.21
51178;BME280;37243;49.814;8.652;2022-09-09T02:07:49;99736.28;;;28.20;42.11
51178;BME280;37243;49.814;8.652;2022-09-09T02:10:21;99730.78;;;28.20;42.36
51178;BME280;37243;49.814;8.652;2022-09-09T02:13:03;99740.94;;;28.16;41.87
51178;BME280;37243;49.814;8.652;2022-09-09T02:15:40;99729.91;;;28.16;41.72
51178;BME280;37243;49.814;8.652;2022-09-09T02:18:12;99737.38;;;28.15;41.98
51178;BME280;37243;49.814;8.652;2022-09-09T02:20:47;99730.25;;;28.14;42.18
51178;BME280;37243;49.814;8.652;2022-09-09T02:23:17;99744.41;;;28.13;42.26
51178;BME280;37243;49.814;8.652;2022-09-09T02:25:46;99740.47;;;28.14;41.69
51178;BME280;37243;49.814;8.652;2022-09-09T02:28:24;99743.94;;;28.11;42.31
51178;BME280;37243;49.814;8.652;2022-09-09T02:30:54;99741.19;;;28.11;42.09
51178;BME280;37243;49.814;8.652;2022-09-09T02:33:27;99754.97;;;28.11;42.17
51178;BME280;37243;49.814;8.652;2022-09-09T02:35:58;99750.25;;;28.11;42.39
51178;BME280;37243;49.814;8.652;2022-09-09T02:38:32;99749.44;;;28.11;41.99
51178;BME280;37243;49.814;8.652;2022-09-09T02:41:03;99746.25;;;28.09;42.12
51178;BME280;37243;49.814;8.652;2022-09-09T02:43:36;99741.91;;;28.08;41.75
51178;BME280;37243;49.814;8.652;2022-09-09T02:46:18;99739.50;;;28.06;42.18
51178;BME280;37243;49.814;8.652;2022-09-09T02:48:59;99742.13;;;28.03;41.89
51178;BME280;37243;49.814;8.652;2022-09-09T02:51:33;99748.91;;;28.05;42.14
51178;BME280;37243;49.814;8.652;2022-09-09T02:54:13;99736.31;;;28.04;42.17
51178;BME280;37243;49.814;8.652;2022-09-09T02:56:49;99736.97;;;28.01;41.92
51178;BME280;37243;49.814;8.652;2022-09-09T02:59:25;99745.16;;;27.98;42.14
51178;BME280;37243;49.814;8.652;2022-09-09T03:01:54;99738.13;;;28.00;42.21
51178;BME280;37243;49.814;8.652;2022-09-09T03:04:23;99740.53;;;28.02;42.19
51178;BME280;37243;49.814;8.652;2022-09-09T03:06:52;99744.44;;;28.01;42.33
51178;BME280;37243;49.814;8.652;2022-09-09T03:09:21;99750.75;;;28.01;42.53
51178;BME280;37243;49.814;8.652;2022-09-09T03:11:49;99744.44;;;28.01;42.08
51178;BME280;37243;49.814;8.652;2022-09-09T03:14:23;99745.38;;;28.05;42.55
51178;BME280;37243;49.814;8.652;2022-09-09T03:16:54;99741.00;;;28.04;42.37
51178;BME280;37243;49.814;8.652;2022-09-09T03:19:25;99736.75;;;28.06;42.22
51178;BME280;37243;49.814;8.652;2022-09-09T03:21:55;99739.88;;;28.05;41.87
51178;BME280;37243;49.814;8.652;2022-09-09T03:24:24;99743.78;;;28.04;42.48
51178;BME280;37243;49.814;8.652;2022-09-09T03:26:53;99736.75;;;28.06;42.50
51178;BME280;37243;49.814;8.652;2022-09-09T03:29:24;99747.78;;;28.06;42.47
51178;BME280;37243;49.814;8.652;2022-09-09T03:31:52;99745.00;;;28.06;41.99
51178;BME280;37243;49.814;8.652;2022-09-09T03:34:22;99746.06;;;28.02;42.17
51178;BME280;37243;49.814;8.652;2022-09-09T03:36:50;99746.53;;;28.04;41.73
51178;BME280;37243;49.814;8.652;2022-09-09T03:39:19;99757.84;;;28.02;41.95
51178;BME280;37243;49.814;8.652;2022-09-09T03:41:47;99747.34;;;28.04;42.20
51178;BME280;37243;49.814;8.652;2022-09-09T03:44:17;99756.84;;;28.07;42.36
51178;BME280;37243;49.814;8.652;2022-09-09T03:46:48;99756.75;;;28.03;42.54
51178;BME280;37243;49.814;8.652;2022-09-09T03:49:17;99749.97;;;28.01;42.37
51178;BME280;37243;49.814;8.652;2022-09-09T03:51:45;99748.34;;;28.00;42.10
51178;BME280;37243;49.814;8.652;2022-09-09T03:54:14;99753.53;;;28.01;42.40
51178;BME280;37243;49.814;8.652;2022-09-09T03:56:42;99752.72;;;28.01;42.30
51178;BME280;37243;49.814;8.652;2022-09-09T03:59:11;99745.16;;;27.98;42.17
51178;BME280;37243;49.814;8.652;2022-09-09T04:01:39;99740.78;;;27.97;41.95
51178;BME280;37243;49.814;8.652;2022-09-09T04:04:10;99734.94;;;27.98;42.53
51178;BME280;37243;49.814;8.652;2022-09-09T04:06:40;99733.31;;;27.97;42.13
51178;BME280;37243;49.814;8.652;2022-09-09T04:09:08;99728.97;;;27.96;41.57
51178;BME280;37243;49.814;8.652;2022-09-09T04:11:37;99730.94;;;27.96;42.29
51178;BME280;37243;49.814;8.652;2022-09-09T04:14:06;99730.47;;;27.94;42.38
51178;BME280;37243;49.814;8.652;2022-09-09T04:16:36;99729.31;;;27.95;42.26
51178;BME280;37243;49.814;8.652;2022-09-09T04:19:11;99726.91;;;27.93;42.51
51178;BME280;37243;49.814;8.652;2022-09-09T04:21:41;99732.44;;;27.93;42.41
51178;BME280;37243;49.814;8.652;2022-09-09T04:24:10;99737.84;;;27.90;42.80
51178;BME280;37243;49.814;8.652;2022-09-09T04:26:40;99721.31;;;27.90;42.17
51178;BME280;37243;49.814;8.652;2022-09-09T04:29:08;99728.78;;;27.89;42.17
51178;BME280;37243;49.814;8.652;2022-09-09T04:31:37;99731.16;;;27.91;42.48
51178;BME280;37243;49.814;8.652;2022-09-09T04:34:15;99726.66;;;27.98;42.18
51178;BME280;37243;49.814;8.652;2022-09-09T04:36:44;99738.03;;;27.97;42.06
51178;BME280;37243;49.814;8.652;2022-09-09T04:39:12;99734.13;;;27.98;42.51
51178;BME280;37243;49.814;8.652;2022-09-09T04:41:41;99737.25;;;27.96;41.83
51178;BME280;37243;49.814;8.652;2022-09-09T04:44:10;99739.19;;;27.96;42.03
51178;BME280;37243;49.814;8.652;2022-09-09T04:46:38;99732.44;;;27.93;42.27
51178;BME280;37243;49.814;8.652;2022-09-09T04:49:07;99746.22;;;27.93;42.47
51178;BME280;37243;49.814;8.652;2022-09-09T04:51:38;99743.81;;;27.92;42.27
51178;BME280;37243;49.814;8.652;2022-09-09T04:54:07;99752.06;;;27.92;42.16
51178;BME280;37243;49.814;8.652;2022-09-09T04:56:37;99756.25;;;27.86;42.47
51178;BME280;37243;49.814;8.652;2022-09-09T04:59:10;99749.91;;;27.85;42.79
51178;BME280;37243;49.814;8.652;2022-09-09T05:01:39;99748.66;;;27.83;42.49
51178;BME280;37243;49.814;8.652;2022-09-09T05:04:13;99754.88;;;27.80;42.36
51178;BME280;37243;49.814;8.652;2022-09-09T05:06:45;99762.72;;;27.78;42.67
51178;BME280;37243;49.814;8.652;2022-09-09T05:09:13;99769.63;;;27.72;43.17
51178;BME280;37243;49.814;8.652;2022-09-09T05:11:43;99769.53;;;27.68;42.47
51178;BME280;37243;49.814;8.652;2022-09-09T05:14:13;99771.94;;;27.70;43.12
51178;BME280;37243;49.814;8.652;2022-09-09T05:16:44;99781.34;;;27.69;43.10
51178;BME280;37243;49.814;8.652;2022-09-09T05:19:18;99788.38;;;27.66;43.22
51178;BME280;37243;49.814;8.652;2022-09-09T05:21:52;99782.53;;;27.68;42.72
51178;BME280;37243;49.814;8.652;2022-09-09T05:24:20;99782.41;;;27.64;42.96
51178;BME280;37243;49.814;8.652;2022-09-09T05:26:48;99781.63;;;27.64;43.03
51178;BME280;37243;49.814;8.652;2022-09-09T05:29:17;99793.78;;;27.63;42.97
51178;BME280;37243;49.814;8.652;2022-09-09T05:31:47;99792.19;;;27.62;42.58
51178;BME280;37243;49.814;8.652;2022-09-09T05:34:15;99802.41;;;27.61;43.33
51178;BME280;37243;49.814;8.652;2022-09-09T05:36:45;99799.91;;;27.56;42.65
51178;BME280;37243;49.814;8.652;2022-09-09T05:39:16;99795.53;;;27.55;43.22
51178;BME280;37243;49.814;8.652;2022-09-09T05:41:46;99797.47;;;27.54;43.06
51178;BME280;37243;49.814;8.652;2022-09-09T05:44:15;99806.13;;;27.53;43.16
51178;BME280;37243;49.814;8.652;2022-09-09T05:46:44;99796.56;;;27.50;43.10
51178;BME280;37243;49.814;8.652;2022-09-09T05:49:14;99811.97;;;27.51;43.14
51178;BME280;37243;49.814;8.652;2022-09-09T05:51:43;99804.84;;;27.50;42.82
51178;BME280;37243;49.814;8.652;2022-09-09T05:54:12;99817.13;;;27.53;43.53
51178;BME280;37243;49.814;8.652;2022-09-09T05:56:44;99816.78;;;27.54;42.63
51178;BME280;37243;49.814;8.652;2022-09-09T05:59:15;99816.88;;;27.58;43.39
51178;BME280;37243;49.814;8.652;2022-09-09T06:01:43;99819.75;;;27.62;43.29
51178;BME280;37243;49.814;8.652;2022-09-09T06:04:15;99826.16;;;27.66;42.54
51178;BME280;37243;49.814;8.652;2022-09-09T06:06:46;99817.44;;;27.64;42.79
51178;BME280;37243;49.814;8.652;2022-09-09T06:09:17;99814.69;;;27.64;42.87
51178;BME280;37243;49.814;8.652;2022-09-09T06:11:55;99814.31;;;27.65;42.85
51178;BME280;37243;49.814;8.652;2022-09-09T06:14:23;99820.19;;;27.64;42.79
51178;BME280;37243;49.814;8.652;2022-09-09T06:16:52;99819.38;;;27.63;43.30
51178;BME280;37243;49.814;8.652;2022-09-09T06:19:22;99818.56;;;27.63;42.42
51178;BME280;37243;49.814;8.652;2022-09-09T06:21:52;99820.19;;;27.64;42.94
51178;BME280;37243;49.814;8.652;2022-09-09T06:24:21;99815.81;;;27.63;42.71
51178;BME280;37243;49.814;8.652;2022-09-09T06:26:52;99813.06;;;27.63;42.86
51178;BME280;37243;49.814;8.652;2022-09-09T06:29:21;99817.00;;;27.62;43.36
51178;BME280;37243;49.814;8.652;2022-09-09T06:31:51;99818.13;;;27.60;42.75
51178;BME280;37243;49.814;8.652;2022-09-09T06:34:20;99818.47;;;27.59;43.23
51178;BME280;37243;49.814;8.652;2022-09-09T06:36:48;99821.69;;;27.61;43.24
51178;BME280;37243;49.814;8.652;2022-09-09T06:39:17;99819.75;;;27.62;42.62
51178;BME280;37243;49.814;8.652;2022-09-09T06:41:46;99825.25;;;27.62;42.62
51178;BME280;37243;49.814;8.652;2022-09-09T06:44:21;99822.03;;;27.59;42.45
51178;BME280;37243;49.814;8.652;2022-09-09T06:46:52;99826.28;;;27.57;43.16
51178;BME280;37243;49.814;8.652;2022-09-09T06:49:23;99835.63;;;27.52;43.44
51178;BME280;37243;49.814;8.652;2022-09-09T06:51:52;99827.69;;;27.51;43.64
51178;BME280;37243;49.814;8.652;2022-09-09T06:54:20;99822.66;;;27.53;42.97
51178;BME280;37243;49.814;8.652;2022-09-09T06:56:51;99835.72;;;27.56;43.26
51178;BME280;37243;49.814;8.652;2022-09-09T06:59:22;99833.75;;;27.56;43.04
51178;BME280;37243;49.814;8.652;2022-09-09T07:01:52;99840.06;;;27.57;42.77
51178;BME280;37243;49.814;8.652;2022-09-09T07:04:22;99842.94;;;27.60;42.93
51178;BME280;37243;49.814;8.652;2022-09-09T07:06:50;99825.59;;;27.60;42.54
51178;BME280;37243;49.814;8.652;2022-09-09T07:09:20;99815.50;;;27.64;42.50
51178;BME280;37243;49.814;8.652;2022-09-09T07:11:51;99822.69;;;27.69;43.09
51178;BME280;37243;49.814;8.652;2022-09-09T07:14:23;99829.94;;;27.73;42.87
51178;BME280;37243;49.814;8.652;2022-09-09T07:16:52;99820.03;;;27.72;42.55
51178;BME280;37243;49.814;8.652;2022-09-09T07:19:21;99825.66;;;27.76;42.69
51178;BME280;37243;49.814;8.652;2022-09-09T07:21:50;99827.72;;;27.79;42.65
51178;BME280;37243;49.814;8.652;2022-09-09T07:24:19;99826.56;;;27.80;42.42
51178;BME280;37243;49.814;8.652;2022-09-09T07:26:48;99819.47;;;27.79;41.99
51178;BME280;37243;49.814;8.652;2022-09-09T07:29:17;99816.22;;;27.77;42.27
51178;BME280;37243;49.814;8.652;2022-09-09T07:31:48;99823.34;;;27.78;42.69
51178;BME280;37243;49.814;8.652;2022-09-09T07:34:17;99825.78;;;27.79;42.57
51178;BME280;37243;49.814;8.652;2022-09-09T07:36:45;99840.34;;;27.80;42.13
51178;BME280;37243;49.814;8.652;2022-09-09T07:39:14;99823.78;;;27.80;42.20
51178;BME280;37243;49.814;8.652;2022-09-09T07:41:45;99839.88;;;27.78;42.73
51178;BME280;37243;49.814;8.652;2022-09-09T07:44:19;99839.19;;;27.81;42.29
51178;BME280;37243;49.814;8.652;2022-09-09T07:46:52;99840.34;;;27.80;42.31
51178;BME280;37243;49.814;8.652;2022-09-09T07:49:21;99831.28;;;27.79;42.19
51178;BME280;37243;49.814;8.652;2022-09-09T07:51:49;99834.50;;;27.81;42.55
51178;BME280;37243;49.814;8.652;2022-09-09T07:54:19;99839.09;;;27.77;42.25
51178;BME280;37243;49.814;8.652;2022-09-09T07:56:49;99839.88;;;27.78;42.46
51178;BME280;37243;49.814;8.652;2022-09-09T07:59:19;99840.69;;;27.78;41.90
51178;BME280;37243;49.814;8.652;2022-09-09T08:01:49;99840.69;;;27.78;42.35
51178;BME280;37243;49.814;8.652;2022-09-09T08:04:23;99848.41;;;27.73;42.80
51178;BME280;37243;49.814;8.652;2022-09-09T08:06:55;99858.53;;;27.69;42.96
51178;BME280;37243;49.814;8.652;2022-09-09T08:09:24;99849.09;;;27.70;42.16
51178;BME280;37243;49.814;8.652;2022-09-09T08:11:56;99848.75;;;27.71;42.60
51178;BME280;37243;49.814;8.652;2022-09-09T08:14:26;99860.13;;;27.70;42.55
51178;BME280;37243;49.814;8.652;2022-09-09T08:16:55;99866.78;;;27.69;42.25
51178;BME280;37243;49.814;8.652;2022-09-09T08:19:27;99863.34;;;27.72;42.52
51178;BME280;37243;49.814;8.652;2022-09-09T08:21:58;99858.97;;;27.71;42.76
51178;BME280;37243;49.814;8.652;2022-09-09T08:24:27;99859.44;;;27.73;42.16
51178;BME280;37243;49.814;8.652;2022-09-09T08:26:55;99876.41;;;27.75;42.09
51178;BME280;37243;49.814;8.652;2022-09-09T08:29:24;99871.72;;;27.75;42.58
51178;BME280;37243;49.814;8.652;2022-09-09T08:31:56;99866.66;;;27.77;42.09
51178;BME280;37243;49.814;8.652;2022-09-09T08:34:27;99875.38;;;27.79;42.31
51178;BME280;37243;49.814;8.652;2022-09-09T08:36:57;99877.69;;;27.77;42.48
51178;BME280;37243;49.814;8.652;2022-09-09T08:39:25;99874.91;;;27.77;42.32
51178;BME280;37243;49.814;8.652;2022-09-09T08:42:14;99879.28;;;27.78;42.28
51178;BME280;37243;49.814;8.652;2022-09-09T08:45:02;99881.69;;;27.80;41.93
51178;BME280;37243;49.814;8.652;2022-09-09T08:47:41;99875.03;;;27.81;42.66
51178;BME280;37243;49.814;8.652;2022-09-09T08:50:21;99867.69;;;27.85;42.38
51178;BME280;37243;49.814;8.652;2022-09-09T08:52:55;99863.63;;;27.82;41.96
51178;BME280;37243;49.814;8.652;2022-09-09T08:55:36;99865.94;;;27.80;42.14
51178;BME280;37243;49.814;8.652;2022-09-09T08:58:12;99873.41;;;27.80;42.15
51178;BME280;37243;49.814;8.652;2022-09-09T09:00:59;99861.59;;;27.79;42.14
51178;BME280;37243;49.814;8.652;2022-09-09T09:03:37;99865.16;;;27.80;42.27
51178;BME280;37243;49.814;8.652;2022-09-09T09:06:26;99863.56;;;27.79;42.24
51178;BME280;37243;49.814;8.652;2022-09-09T09:09:07;99865.25;;;27.83;42.59
51178;BME280;37243;49.814;8.652;2022-09-09T09:11:37;99857.09;;;27.87;42.23
51178;BME280;37243;49.814;8.652;2022-09-09T09:14:10;99852.13;;;27.92;41.77
51178;BME280;37243;49.814;8.652;2022-09-09T09:16:47;99856.13;;;27.95;42.47
51178;BME280;37243;49.814;8.652;2022-09-09T09:19:18;99851.53;;;27.99;41.99
51178;BME280;37243;49.814;8.652;2022-09-09T09:21:54;99849.66;;;28.03;41.86
51178;BME280;37243;49.814;8.652;2022-09-09T09:24:28;99860.50;;;28.08;42.26
51178;BME280;37243;49.814;8.652;2022-09-09T09:27:04;99864.41;;;28.07;41.31
51178;BME280;37243;49.814;8.652;2022-09-09T09:29:38;99861.38;;;28.12;41.73
51178;BME280;37243;49.814;8.652;2022-09-09T09:32:11;99852.41;;;28.15;41.53
51178;BME280;37243;49.814;8.652;2022-09-09T09:34:48;99856.06;;;28.19;41.20
51178;BME280;37243;49.814;8.652;2022-09-09T09:37:26;99858.84;;;28.19;41.89
51178;BME280;37243;49.814;8.652;2022-09-09T09:39:56;99863.16;;;28.20;41.51
51178;BME280;37243;49.814;8.652;2022-09-09T09:42:36;99865.94;;;28.20;41.37
51178;BME280;37243;49.814;8.652;2022-09-09T09:45:16;99860.41;;;28.20;41.66
51178;BME280;37243;49.814;8.652;2022-09-09T09:47:46;99856.06;;;28.19;41.48
51178;BME280;37243;49.814;8.652;2022-09-09T09:50:19;99855.72;;;28.21;41.37
51178;BME280;37243;49.814;8.652;2022-09-09T09:52:57;99852.50;;;28.19;41.23
51178;BME280;37243;49.814;8.652;2022-09-09T09:55:27;99855.59;;;28.17;41.21
51178;BME280;37243;49.814;8.652;2022-09-09T09:58:01;99848.59;;;28.20;41.50
51178;BME280;37243;49.814;8.652;2022-09-09T10:00:33;99864.69;;;28.17;41.50
51178;BME280;37243;49.814;8.652;2022-09-09T10:03:17;99858.34;;;28.17;41.61
51178;BME280;37243;49.814;8.652;2022-09-09T10:05:49;99861.59;;;28.19;41.39
51178;BME280;37243;49.814;8.652;2022-09-09T10:08:20;99858.84;;;28.19;41.65
51178;BME280;37243;49.814;8.652;2022-09-09T10:11:05;99848.94;;;28.18;41.67
51178;BME280;37243;49.814;8.652;2022-09-09T10:13:42;99857.66;;;28.20;41.55
51178;BME280;37243;49.814;8.652;2022-09-09T10:16:28;99848.69;;;28.23;41.48
51178;BME280;37243;49.814;8.652;2022-09-09T10:19:04;99858.66;;;28.28;41.22
51178;BME280;37243;49.814;8.652;2022-09-09T10:21:50;99849.59;;;28.27;41.88
51178;BME280;37243;49.814;8.652;2022-09-09T10:24:48;99846.13;;;28.30;40.99
51178;BME280;37243;49.814;8.652;2022-09-09T10:27:28;99840.59;;;28.30;41.19
51178;BME280;37243;49.814;8.652;2022-09-09T10:30:14;99847.72;;;28.31;41.00
51178;BME280;37243;49.814;8.652;2022-09-09T10:32:49;99835.91;;;28.31;41.48
51178;BME280;37243;49.814;8.652;2022-09-09T10:35:29;99830.28;;;28.27;41.25
51178;BME280;37243;49.814;8.652;2022-09-09T10:38:14;99831.16;;;28.31;41.31
51178;BME280;37243;49.814;8.652;2022-09-09T10:41:00;99809.91;;;28.32;40.88
51178;BME280;37243;49.814;8.652;2022-09-09T10:43:41;99810.59;;;28.29;41.58
51178;BME280;37243;49.814;8.652;2022-09-09T10:46:20;99811.41;;;28.29;41.73
51178;BME280;37243;49.814;8.652;2022-09-09T10:49:09;99799.56;;;28.29;41.14
51178;BME280;37243;49.814;8.652;2022-09-09T10:51:49;99791.75;;;28.31;41.31
51178;BME280;37243;49.814;8.652;2022-09-09T10:54:28;99810.69;;;28.32;41.73
51178;BME280;37243;49.814;8.652;2022-09-09T10:57:08;99797.34;;;28.34;41.36
51178;BME280;37243;49.814;8.652;2022-09-09T10:59:44;99807.59;;;28.34;41.75
51178;BME280;37243;49.814;8.652;2022-09-09T11:02:18;99805.63;;;28.34;41.25
51178;BME280;37243;49.814;8.652;2022-09-09T11:04:53;99793.44;;;28.35;41.16
51178;BME280;37243;49.814;8.652;2022-09-09T11:07:28;99796.28;;;28.39;41.11
51178;BME280;37243;49.814;8.652;2022-09-09T11:10:02;99795.59;;;28.42;41.00
51178;BME280;37243;49.814;8.652;2022-09-09T11:12:38;99798.78;;;28.44;41.51
51178;BME280;37243;49.814;8.652;2022-09-09T11:15:16;99800.72;;;28.43;40.85
51178;BME280;37243;49.814;8.652;2022-09-09T11:17:48;99801.53;;;28.44;40.93
51178;BME280;37243;49.814;8.652;2022-09-09T11:20:18;99807.50;;;28.46;40.82
51178;BME280;37243;49.814;8.652;2022-09-09T11:22:51;99796.84;;;28.44;41.06
51178;BME280;37243;49.814;8.652;2022-09-09T11:25:25;99803.16;;;28.45;40.82
51178;BME280;37243;49.814;8.652;2022-09-09T11:28:09;99800.03;;;28.46;40.98
51178;BME280;37243;49.814;8.652;2022-09-09T11:30:55;99794.50;;;28.46;41.43
51178;BME280;37243;49.814;8.652;2022-09-09T11:33:54;99799.69;;;28.48;41.30
51178;BME280;37243;49.814;8.652;2022-09-09T11:39:51;99803.97;;;28.45;40.76
51178;BME280;37243;49.814;8.652;2022-09-09T11:42:25;99801.19;;;28.45;41.42
51178;BME280;37243;49.814;8.652;2022-09-09T11:45:19;99800.03;;;28.46;41.00
51178;BME280;37243;49.814;8.652;2022-09-09T11:47:53;99798.44;;;28.45;41.11
51178;BME280;37243;49.814;8.652;2022-09-09T11:50:42;99793.69;;;28.46;41.03
51178;BME280;37243;49.814;8.652;2022-09-09T11:53:22;99805.91;;;28.45;41.00
51178;BME280;37243;49.814;8.652;2022-09-09T11:56:05;99802.69;;;28.43;41.28
51178;BME280;37243;49.814;8.652;2022-09-09T11:58:38;99805.81;;;28.41;41.23
51178;BME280;37243;49.814;8.652;2022-09-09T12:01:33;99818.00;;;28.40;41.14
51178;BME280;37243;49.814;8.652;2022-09-09T12:04:11;99815.59;;;28.39;40.74
51178;BME280;37243;49.814;8.652;2022-09-09T12:06:43;99813.19;;;28.37;40.91
51178;BME280;37243;49.814;8.652;2022-09-09T12:09:23;99818.00;;;28.40;41.12
51178;BME280;37243;49.814;8.652;2022-09-09T12:12:06;99815.94;;;28.37;41.17
51178;BME280;37243;49.814;8.652;2022-09-09T12:14:37;99818.72;;;28.37;41.36
51178;BME280;37243;49.814;8.652;2022-09-09T12:17:18;99812.84;;;28.39;41.61
51178;BME280;37243;49.814;8.652;2022-09-09T12:19:48;99814.81;;;28.38;41.14
51178;BME280;37243;49.814;8.652;2022-09-09T12:22:35;99823.53;;;28.40;41.62
51178;BME280;37243;49.814;8.652;2022-09-09T12:25:16;99812.47;;;28.40;41.38
51178;BME280;37243;49.814;8.652;2022-09-09T12:27:59;99818.38;;;28.39;41.70
51178;BME280;37243;49.814;8.652;2022-09-09T12:30:35;99825.84;;;28.38;41.73
51178;BME280;37243;49.814;8.652;2022-09-09T12:33:13;99812.03;;;28.38;40.81
51178;BME280;37243;49.814;8.652;2022-09-09T12:35:47;99809.28;;;28.38;41.55
51178;BME280;37243;49.814;8.652;2022-09-09T12:38:25;99803.88;;;28.42;41.04
51178;BME280;37243;49.814;8.652;2022-09-09T12:40:56;99809.72;;;28.40;40.92
51178;BME280;37243;49.814;8.652;2022-09-09T12:43:27;99806.19;;;28.40;41.05
51178;BME280;37243;49.814;8.652;2022-09-09T12:45:58;99816.03;;;28.41;41.00
51178;BME280;37243;49.814;8.652;2022-09-09T12:48:36;99812.47;;;28.40;41.42
51178;BME280;37243;49.814;8.652;2022-09-09T12:51:16;99817.28;;;28.43;41.10
51178;BME280;37243;49.814;8.652;2022-09-09T12:53:47;99812.94;;;28.42;40.64
51178;BME280;37243;49.814;8.652;2022-09-09T12:56:20;99820.06;;;28.43;41.25
51178;BME280;37243;49.814;8.652;2022-09-09T12:58:55;99804.75;;;28.46;41.36
51178;BME280;37243;49.814;8.652;2022-09-09T13:01:26;99806.72;;;28.45;41.28
51178;BME280;37243;49.814;8.652;2022-09-09T13:03:58;99795.22;;;28.43;41.05
51178;BME280;37243;49.814;8.652;2022-09-09T13:06:28;99796.84;;;28.44;41.06
51178;BME280;37243;49.814;8.652;2022-09-09T13:08:58;99796.84;;;28.44;41.12
51178;BME280;37243;49.814;8.652;2022-09-09T13:11:30;99789.69;;;28.43;41.41
51178;BME280;37243;49.814;8.652;2022-09-09T13:13:59;99782.59;;;28.42;40.59
51178;BME280;37243;49.814;8.652;2022-09-09T13:16:30;99793.97;;;28.41;40.97
51178;BME280;37243;49.814;8.652;2022-09-09T13:19:07;99788.13;;;28.42;40.57
51178;BME280;37243;49.814;8.652;2022-09-09T13:21:38;99795.22;;;28.43;40.67
51178;BME280;37243;49.814;8.652;2022-09-09T13:24:27;99794.78;;;28.41;41.47
51178;BME280;37243;49.814;8.652;2022-09-09T13:26:58;99795.22;;;28.43;40.95
51178;BME280;37243;49.814;8.652;2022-09-09T13:29:29;99792.03;;;28.41;40.19
51178;BME280;37243;49.814;8.652;2022-09-09T13:32:04;99789.16;;;28.38;40.80
51178;BME280;37243;49.814;8.652;2022-09-09T13:34:36;99798.97;;;28.35;39.87
51178;BME280;37243;49.814;8.652;2022-09-09T13:37:06;99791.94;;;28.38;40.68